Time;durP1;ratioP1;P1;durP2;ratioP2;P2;SDS_P1;SDS_P2;PMS_P1;PMS_P2;Temp;Humidity;BMP_temperature;BMP_pressure;BME280_temperature;BME280_humidity;BME280_pressure;Samples;Min_cycle;Max_cycle;Signal;HPM_P1;HPM_P2
2021/05/12 00:02:08;;;;;;;5.50;5.10;;;17.00;99.90;;;;;;5129358;27;20205;-85
2021/05/12 00:04:35;;;;;;;6.40;5.90;;;16.80;99.90;;;;;;5130071;27;20946;-85
2021/05/12 00:07:01;;;;;;;6.47;5.97;;;16.70;99.90;;;;;;5131097;27;20208;-84
2021/05/12 00:09:27;;;;;;;6.20;5.53;;;16.70;99.90;;;;;;5130552;27;20205;-84
2021/05/12 00:11:53;;;;;;;6.97;6.37;;;16.40;99.90;;;;;;5130860;27;20221;-85
2021/05/12 00:14:19;;;;;;;6.67;6.17;;;16.30;99.90;;;;;;5130551;27;20245;-84
2021/05/12 00:16:46;;;;;;;7.03;6.33;;;16.30;99.90;;;;;;5131086;27;20209;-87
2021/05/12 00:19:13;;;;;;;6.90;5.70;;;16.30;99.90;;;;;;5131444;27;20579;-88
2021/05/12 00:21:43;;;;;;;5.80;5.30;;;16.60;99.90;;;;;;5131732;27;20226;-87
2021/05/12 00:24:09;;;;;;;6.30;5.30;;;16.40;99.90;;;;;;5131763;27;20731;-89
2021/05/12 00:26:37;;;;;;;6.37;5.77;;;16.20;99.90;;;;;;5131845;27;20205;-88
2021/05/12 00:29:04;;;;;;;5.90;5.40;;;16.10;99.90;;;;;;5131936;27;20205;-88
2021/05/12 00:31:30;;;;;;;6.07;5.63;;;15.90;99.90;;;;;;5130890;27;20231;-87
2021/05/12 00:34:00;;;;;;;6.20;5.70;;;15.70;99.90;;;;;;5132083;27;20205;-87
2021/05/12 00:36:27;;;;;;;5.80;5.27;;;15.80;99.90;;;;;;5131959;27;20205;-87
2021/05/12 00:38:56;;;;;;;5.83;5.17;;;15.60;99.90;;;;;;5089228;27;20247;-87
2021/05/12 00:41:22;;;;;;;6.83;5.23;;;15.60;99.90;;;;;;5047592;28;20231;-87
2021/05/12 00:43:49;;;;;;;6.37;5.77;;;15.60;99.90;;;;;;5047416;28;20208;-87
2021/05/12 00:46:15;;;;;;;5.53;5.03;;;15.70;99.90;;;;;;5041290;28;20200;-79
2021/05/12 00:48:41;;;;;;;5.97;5.43;;;15.60;99.90;;;;;;5032941;28;20196;-79
2021/05/12 00:51:08;;;;;;;6.77;5.40;;;15.60;99.90;;;;;;5038322;28;20209;-77
2021/05/12 00:53:36;;;;;;;5.93;5.43;;;15.40;99.90;;;;;;5025565;28;20323;-80
2021/05/12 00:56:03;;;;;;;5.37;4.97;;;15.40;99.90;;;;;;5025640;28;20264;-79
2021/05/12 00:58:30;;;;;;;5.20;4.70;;;15.50;99.90;;;;;;5025381;28;20209;-79
2021/05/12 01:00:57;;;;;;;4.97;4.67;;;15.50;99.90;;;;;;5025549;28;20269;-78
2021/05/12 01:03:23;;;;;;;5.67;4.77;;;15.70;99.90;;;;;;5025336;28;20663;-79
2021/05/12 01:06:00;;;;;;;4.57;4.27;;;16.00;99.90;;;;;;5025601;28;20213;-79
2021/05/12 01:08:28;;;;;;;5.07;4.67;;;16.10;99.90;;;;;;5025413;28;20227;-79
2021/05/12 01:10:55;;;;;;;5.90;5.40;;;15.90;99.90;;;;;;5025581;28;20678;-79
2021/05/12 01:13:21;;;;;;;6.00;5.40;;;15.60;99.90;;;;;;5028855;28;20633;-80
2021/05/12 01:15:48;;;;;;;6.60;6.00;;;15.30;99.90;;;;;;5028795;28;20209;-80
2021/05/12 01:18:15;;;;;;;5.77;5.17;;;15.30;99.90;;;;;;5028755;28;20701;-79
2021/05/12 01:20:53;;;;;;;5.57;5.13;;;15.30;99.90;;;;;;5028441;27;20220;-79
2021/05/12 01:23:21;;;;;;;5.73;5.30;;;15.30;99.90;;;;;;5028919;28;20321;-79
2021/05/12 01:25:48;;;;;;;6.37;5.00;;;15.50;99.90;;;;;;5028604;28;20212;-79
2021/05/12 01:28:15;;;;;;;5.37;4.97;;;15.50;99.90;;;;;;5028320;28;20670;-79
2021/05/12 01:30:41;;;;;;;6.80;5.47;;;15.70;99.90;;;;;;5028415;28;20225;-79
2021/05/12 01:33:08;;;;;;;5.20;4.67;;;15.60;99.90;;;;;;5028312;27;20256;-78
2021/05/12 01:35:34;;;;;;;5.87;5.23;;;15.40;99.90;;;;;;5028451;28;20213;-79
2021/05/12 01:38:01;;;;;;;5.20;4.70;;;15.30;99.90;;;;;;5028291;28;20244;-79
2021/05/12 01:40:27;;;;;;;5.43;4.90;;;15.50;99.90;;;;;;5028487;28;20246;-78
2021/05/12 01:42:54;;;;;;;6.33;5.50;;;15.30;99.90;;;;;;5028330;28;20356;-78
2021/05/12 01:45:20;;;;;;;5.73;4.80;;;15.40;99.90;;;;;;5028589;28;20213;-78
2021/05/12 01:47:46;;;;;;;5.07;4.67;;;15.60;99.90;;;;;;5028229;28;20236;-78
2021/05/12 01:50:13;;;;;;;5.63;5.10;;;15.30;99.90;;;;;;5028426;28;20209;-77
2021/05/12 01:52:41;;;;;;;5.80;4.53;;;15.40;99.90;;;;;;5028278;28;20293;-81
2021/05/12 01:55:10;;;;;;;5.17;4.67;;;15.60;99.90;;;;;;5028537;28;20253;-80
2021/05/12 01:57:39;;;;;;;6.60;5.00;;;15.80;99.90;;;;;;5028306;28;20281;-81
2021/05/12 02:00:18;;;;;;;5.67;5.00;;;15.80;99.90;;;;;;5028435;28;20265;-81
2021/05/12 02:02:44;;;;;;;4.90;4.50;;;15.70;99.90;;;;;;5028407;28;20193;-82
2021/05/12 02:05:10;;;;;;;5.73;4.90;;;15.90;99.90;;;;;;5028171;28;20216;-77
2021/05/12 02:07:36;;;;;;;6.87;5.20;;;15.50;99.90;;;;;;5028005;28;20213;-77
2021/05/12 02:10:04;;;;;;;4.67;4.30;;;15.40;99.90;;;;;;5028209;28;20251;-77
2021/05/12 02:12:31;;;;;;;5.10;4.60;;;15.30;99.90;;;;;;5028109;27;20225;-77
2021/05/12 02:14:57;;;;;;;4.90;4.50;;;15.30;99.90;;;;;;5028039;28;20554;-77
2021/05/12 02:17:23;;;;;;;5.00;4.50;;;15.30;99.90;;;;;;5027980;28;20258;-77
2021/05/12 02:19:49;;;;;;;4.77;4.37;;;15.50;99.90;;;;;;5027502;28;20697;-83
2021/05/12 02:22:15;;;;;;;5.93;4.20;;;15.70;99.90;;;;;;5027425;28;20236;-78
2021/05/12 02:24:41;;;;;;;4.97;4.53;;;15.70;99.90;;;;;;5027317;28;20687;-79
2021/05/12 02:27:08;;;;;;;4.63;4.23;;;15.60;99.90;;;;;;5027980;28;20564;-78
2021/05/12 02:29:34;;;;;;;4.70;4.30;;;15.50;99.90;;;;;;5027827;28;20213;-78
2021/05/12 02:32:01;;;;;;;4.27;3.87;;;15.60;99.90;;;;;;5027656;28;20260;-81
2021/05/12 02:34:27;;;;;;;4.30;3.90;;;15.90;99.90;;;;;;5027754;28;20662;-81
2021/05/12 02:36:53;;;;;;;3.70;3.40;;;16.10;99.90;;;;;;5027572;28;20209;-81
2021/05/12 02:39:19;;;;;;;4.97;3.70;;;16.20;99.90;;;;;;5027408;28;20241;-81
2021/05/12 02:41:45;;;;;;;3.33;3.13;;;16.00;99.90;;;;;;5027499;28;20216;-81
2021/05/12 02:44:11;;;;;;;4.87;3.50;;;15.60;99.90;;;;;;5027556;28;20261;-81
2021/05/12 02:46:38;;;;;;;3.70;3.40;;;15.40;99.90;;;;;;5032921;28;20205;-79
2021/05/12 02:49:04;;;;;;;3.77;3.40;;;15.30;99.90;;;;;;5046762;28;20204;-79
2021/05/12 02:51:30;;;;;;;4.33;2.90;;;15.10;99.90;;;;;;5047094;28;20211;-79
2021/05/12 02:53:57;;;;;;;3.37;3.07;;;15.10;99.90;;;;;;5047278;28;20229;-78
2021/05/12 02:56:23;;;;;;;4.53;3.30;;;14.90;99.90;;;;;;5047336;28;20273;-80
2021/05/12 02:58:49;;;;;;;3.70;3.47;;;14.90;99.90;;;;;;5047137;28;20212;-80
2021/05/12 03:01:15;;;;;;;8.63;3.80;;;15.00;99.90;;;;;;5046893;28;20973;-80
2021/05/12 03:03:42;;;;;;;3.97;3.60;;;14.90;99.90;;;;;;5047038;28;20208;-79
2021/05/12 03:06:10;;;;;;;3.73;3.47;;;15.20;99.90;;;;;;5047052;28;20208;-80
2021/05/12 03:08:36;;;;;;;3.77;2.90;;;15.30;99.90;;;;;;5047184;27;20211;-80
2021/05/12 03:11:02;;;;;;;3.67;3.00;;;15.50;99.90;;;;;;5046679;28;20670;-80
2021/05/12 03:13:28;;;;;;;2.90;2.70;;;15.50;99.90;;;;;;5046978;28;20232;-79
2021/05/12 03:15:55;;;;;;;3.23;3.00;;;15.60;99.90;;;;;;5046785;28;20208;-80
2021/05/12 03:18:21;;;;;;;3.27;2.97;;;15.50;99.90;;;;;;5046896;28;20208;-79
2021/05/12 03:20:48;;;;;;;4.33;3.00;;;15.40;99.90;;;;;;5046734;28;20209;-80
2021/05/12 03:23:14;;;;;;;3.43;2.93;;;15.60;99.90;;;;;;5046839;28;20306;-80
2021/05/12 03:25:41;;;;;;;3.47;2.70;;;15.70;99.90;;;;;;5046907;28;20227;-80
2021/05/12 03:28:07;;;;;;;3.10;2.73;;;15.60;99.90;;;;;;5046650;28;20755;-79
2021/05/12 03:30:35;;;;;;;4.00;3.60;;;15.80;99.90;;;;;;5046857;28;20247;-80
2021/05/12 03:33:03;;;;;;;3.67;2.97;;;15.60;99.90;;;;;;5046356;28;20271;-80
2021/05/12 03:35:29;;;;;;;3.13;2.93;;;15.30;99.90;;;;;;5046511;28;20208;-82
2021/05/12 03:37:56;;;;;;;6.37;3.43;;;15.10;99.90;;;;;;5046338;28;20205;-80
2021/05/12 03:40:24;;;;;;;5.50;3.00;;;15.10;99.90;;;;;;5046533;28;20188;-80
2021/05/12 03:42:50;;;;;;;3.20;3.00;;;15.00;99.90;;;;;;5046538;28;20708;-80
2021/05/12 03:45:16;;;;;;;3.33;3.03;;;15.20;99.90;;;;;;5046487;28;20720;-80
2021/05/12 03:47:43;;;;;;;3.20;2.90;;;15.40;99.90;;;;;;5046334;28;20231;-80
2021/05/12 03:50:10;;;;;;;3.87;3.10;;;15.30;99.90;;;;;;5046205;28;20208;-81
2021/05/12 03:52:37;;;;;;;4.23;2.97;;;15.30;99.90;;;;;;5046199;28;20263;-77
2021/05/12 03:55:06;;;;;;;4.03;3.23;;;15.30;99.90;;;;;;5046160;28;20204;-78
2021/05/12 03:57:32;;;;;;;4.13;3.83;;;14.90;99.90;;;;;;5046260;28;20212;-78
2021/05/12 03:59:58;;;;;;;5.47;3.80;;;14.50;99.90;;;;;;5046109;28;20251;-78
2021/05/12 04:02:25;;;;;;;6.27;4.40;;;14.50;99.90;;;;;;5046098;28;20794;-78
2021/05/12 04:04:52;;;;;;;5.50;3.77;;;14.20;99.90;;;;;;5045861;28;20265;-80
2021/05/12 04:07:18;;;;;;;3.90;3.60;;;14.40;99.90;;;;;;5046366;28;20712;-80
2021/05/12 04:09:44;;;;;;;4.40;4.00;;;14.60;99.90;;;;;;5046067;28;20204;-80
2021/05/12 04:12:11;;;;;;;4.37;3.97;;;14.70;99.90;;;;;;5045921;28;20228;-80
2021/05/12 04:14:37;;;;;;;5.83;3.97;;;14.80;99.90;;;;;;5046343;28;20204;-79
2021/05/12 04:17:04;;;;;;;4.27;3.87;;;14.90;99.90;;;;;;5045905;28;20204;-80
2021/05/12 04:19:30;;;;;;;4.73;4.23;;;15.10;99.90;;;;;;5046250;28;20208;-81
2021/05/12 04:21:56;;;;;;;5.30;4.67;;;15.00;99.90;;;;;;5046210;28;20232;-80
2021/05/12 04:24:24;;;;;;;4.33;4.00;;;15.20;99.90;;;;;;5046185;28;20212;-81
2021/05/12 04:26:50;;;;;;;5.10;4.00;;;15.30;99.90;;;;;;5045843;27;20212;-81
2021/05/12 04:29:17;;;;;;;4.77;4.37;;;15.30;99.90;;;;;;5045894;28;20204;-80
2021/05/12 04:31:43;;;;;;;4.27;3.93;;;15.30;99.90;;;;;;5045759;28;20216;-78
2021/05/12 04:34:10;;;;;;;6.80;3.97;;;15.40;99.90;;;;;;5045549;28;20550;-79
2021/05/12 04:36:36;;;;;;;4.43;4.03;;;15.30;99.90;;;;;;5045781;28;20243;-79
2021/05/12 04:39:03;;;;;;;4.10;3.70;;;15.30;99.90;;;;;;5045290;27;20243;-79
2021/05/12 04:41:29;;;;;;;6.00;4.50;;;15.10;99.90;;;;;;5045688;28;20622;-78
2021/05/12 04:43:56;;;;;;;4.40;4.00;;;14.90;99.90;;;;;;5045164;28;20208;-78
2021/05/12 04:46:23;;;;;;;4.33;3.97;;;15.00;99.90;;;;;;5052193;28;20215;-82
2021/05/12 04:48:50;;;;;;;4.10;3.70;;;15.20;99.90;;;;;;5053612;28;20295;-83
2021/05/12 04:51:16;;;;;;;4.10;3.57;;;15.10;99.90;;;;;;5053524;28;20673;-85
2021/05/12 04:53:42;;;;;;;4.23;3.90;;;14.90;99.90;;;;;;5053057;27;20736;-82
2021/05/12 04:56:08;;;;;;;4.00;3.60;;;15.00;99.90;;;;;;5052419;28;20217;-82
2021/05/12 04:58:35;;;;;;;4.10;3.80;;;14.90;99.90;;;;;;5053041;28;20211;-83
2021/05/12 05:01:01;;;;;;;4.23;3.83;;;15.10;99.90;;;;;;5052807;27;20726;-88
2021/05/12 05:03:28;;;;;;;4.40;4.00;;;15.10;99.90;;;;;;5052530;28;20678;-82
2021/05/12 05:05:54;;;;;;;4.23;3.83;;;14.80;99.90;;;;;;5052078;28;20207;-82
2021/05/12 05:08:20;;;;;;;4.53;4.10;;;14.80;99.90;;;;;;5052053;28;20250;-81
2021/05/12 05:10:47;;;;;;;6.27;4.10;;;14.80;99.90;;;;;;5051786;28;20245;-81
2021/05/12 05:13:14;;;;;;;4.73;3.90;;;14.80;99.90;;;;;;5051875;27;21052;-81
2021/05/12 05:15:40;;;;;;;5.40;3.80;;;15.00;99.90;;;;;;5052360;28;20665;-83
2021/05/12 05:18:06;;;;;;;4.60;4.20;;;15.00;99.90;;;;;;5052646;27;20215;-84
2021/05/12 05:20:34;;;;;;;7.73;4.57;;;14.70;99.90;;;;;;5053167;27;20215;-83
2021/05/12 05:23:04;;;;;;;4.20;3.90;;;14.70;99.90;;;;;;5052427;27;20797;-83
2021/05/12 05:25:31;;;;;;;4.73;3.70;;;14.90;99.90;;;;;;5052775;27;20200;-80
2021/05/12 05:27:57;;;;;;;4.87;4.37;;;14.90;99.90;;;;;;5051713;27;20300;-81
2021/05/12 05:30:23;;;;;;;7.30;3.93;;;14.80;99.90;;;;;;5051953;27;20299;-81
2021/05/12 05:32:49;;;;;;;4.40;4.00;;;14.70;99.90;;;;;;5051675;28;20266;-79
2021/05/12 05:35:15;;;;;;;5.80;4.50;;;14.60;99.90;;;;;;5041604;28;20196;-80
2021/05/12 05:37:42;;;;;;;5.53;4.27;;;14.60;99.90;;;;;;5041698;28;20244;-78
2021/05/12 05:40:10;;;;;;;4.73;4.33;;;14.80;99.90;;;;;;5042585;27;20207;-79
2021/05/12 05:42:36;;;;;;;4.53;4.13;;;14.80;99.90;;;;;;5036518;28;20673;-80
2021/05/12 05:45:03;;;;;;;4.50;4.07;;;14.80;99.90;;;;;;5031635;28;20249;-80
2021/05/12 05:47:29;;;;;;;4.30;4.00;;;15.10;99.90;;;;;;5031699;28;20254;-78
2021/05/12 05:49:55;;;;;;;4.07;3.77;;;15.10;99.90;;;;;;5038362;28;20565;-79
2021/05/12 05:52:22;;;;;;;5.63;4.83;;;15.30;99.90;;;;;;5051194;27;20713;-80
2021/05/12 05:54:49;;;;;;;4.57;4.20;;;15.40;99.90;;;;;;5051149;27;20694;-78
2021/05/12 05:57:15;;;;;;;5.87;4.83;;;15.30;99.90;;;;;;5036405;28;20278;-78
2021/05/12 05:59:42;;;;;;;5.33;4.73;;;15.10;99.90;;;;;;5030834;28;20395;-77
2021/05/12 06:02:08;;;;;;;6.97;4.60;;;15.00;99.90;;;;;;5033523;28;20212;-77
2021/05/12 06:04:35;;;;;;;6.50;4.50;;;14.80;99.90;;;;;;5035512;28;20217;-78
2021/05/12 06:07:01;;;;;;;5.37;4.87;;;14.70;99.90;;;;;;5037520;28;20200;-77
2021/05/12 06:09:27;;;;;;;5.70;5.17;;;14.70;99.90;;;;;;5038286;28;20565;-77
2021/05/12 06:11:55;;;;;;;5.50;5.10;;;14.80;99.90;;;;;;5031938;28;20267;-78
2021/05/12 06:14:22;;;;;;;5.60;5.10;;;14.90;99.90;;;;;;5025420;28;20209;-78
2021/05/12 06:16:49;;;;;;;6.57;5.47;;;15.00;99.90;;;;;;5025701;28;20201;-77
2021/05/12 06:19:15;;;;;;;6.67;5.73;;;14.60;99.90;;;;;;5030475;28;20205;-77
2021/05/12 06:21:41;;;;;;;6.40;5.73;;;14.50;99.90;;;;;;5030831;28;20236;-77
2021/05/12 06:24:08;;;;;;;6.70;6.07;;;14.60;99.90;;;;;;5028018;28;20209;-77
2021/05/12 06:26:36;;;;;;;8.70;5.97;;;14.50;99.90;;;;;;5031677;28;20209;-78
2021/05/12 06:29:04;;;;;;;9.27;5.80;;;14.50;99.90;;;;;;5025473;28;20226;-77
2021/05/12 06:31:30;;;;;;;7.30;5.73;;;14.40;99.90;;;;;;5025579;28;20337;-81
2021/05/12 06:33:57;;;;;;;8.17;6.90;;;14.50;99.90;;;;;;5042774;28;20248;-80
2021/05/12 06:36:23;;;;;;;7.87;6.00;;;14.50;99.90;;;;;;5040442;28;20212;-78
2021/05/12 06:38:49;;;;;;;8.43;6.90;;;14.60;99.90;;;;;;5037389;27;20232;-78
2021/05/12 06:41:16;;;;;;;7.30;6.30;;;14.60;99.90;;;;;;5026759;28;20216;-75
2021/05/12 06:43:42;;;;;;;9.07;7.43;;;14.50;99.90;;;;;;5043341;27;20735;-78
2021/05/12 06:46:09;;;;;;;8.60;7.80;;;14.50;99.90;;;;;;5045153;28;20208;-77
2021/05/12 06:48:35;;;;;;;9.30;8.30;;;14.50;99.90;;;;;;5044833;28;20966;-78
2021/05/12 06:51:03;;;;;;;15.33;8.97;;;14.50;99.90;;;;;;5044072;28;20661;-77
2021/05/12 06:53:32;;;;;;;10.27;8.53;;;14.60;99.90;;;;;;5044697;28;20232;-78
2021/05/12 06:55:59;;;;;;;10.47;9.47;;;14.80;99.90;;;;;;5044766;28;20215;-77
2021/05/12 06:58:25;;;;;;;10.30;9.30;;;14.70;99.90;;;;;;5044777;28;20662;-78
2021/05/12 07:00:52;;;;;;;9.70;8.80;;;14.60;99.90;;;;;;5047481;27;20253;-78
2021/05/12 07:03:21;;;;;;;9.63;8.63;;;14.80;99.90;;;;;;5042040;27;20346;-79
2021/05/12 07:05:47;;;;;;;10.53;8.77;;;14.80;99.90;;;;;;5040359;28;20223;-77
2021/05/12 07:08:13;;;;;;;9.57;8.60;;;14.80;99.90;;;;;;5030832;28;20290;-77
2021/05/12 07:10:39;;;;;;;10.27;8.83;;;14.80;99.90;;;;;;5035393;28;20208;-77
2021/05/12 07:13:05;;;;;;;10.50;9.50;;;14.70;99.90;;;;;;5031556;28;20623;-77
2021/05/12 07:15:32;;;;;;;10.83;9.73;;;14.40;99.90;;;;;;5034258;28;20663;-77
2021/05/12 07:17:58;;;;;;;11.23;9.47;;;14.40;99.90;;;;;;5025246;28;20201;-78
2021/05/12 07:20:25;;;;;;;10.37;9.33;;;14.50;99.90;;;;;;5025133;28;20212;-78
2021/05/12 07:22:52;;;;;;;9.83;8.70;;;14.60;99.90;;;;;;5025773;28;20624;-77
2021/05/12 07:25:19;;;;;;;12.37;8.40;;;14.70;99.90;;;;;;5045512;28;20219;-78
2021/05/12 07:27:46;;;;;;;12.00;9.40;;;14.90;99.90;;;;;;5045441;28;20618;-77
2021/05/12 07:30:14;;;;;;;11.97;9.83;;;14.90;99.90;;;;;;5045084;27;20579;-78
2021/05/12 07:32:41;;;;;;;11.23;10.03;;;14.70;99.90;;;;;;5044949;28;20310;-77
2021/05/12 07:35:08;;;;;;;12.13;9.63;;;14.70;99.90;;;;;;5044562;28;20204;-77
2021/05/12 07:37:35;;;;;;;10.50;9.50;;;14.70;99.90;;;;;;5044562;28;20204;-77
2021/05/12 07:40:01;;;;;;;11.27;10.07;;;15.00;99.90;;;;;;5043822;28;20292;-78
2021/05/12 07:42:27;;;;;;;11.63;10.43;;;14.80;99.90;;;;;;5044522;28;20219;-77
2021/05/12 07:44:53;;;;;;;12.97;9.93;;;14.70;99.90;;;;;;5037896;28;20248;-76
2021/05/12 07:47:19;;;;;;;12.87;10.83;;;14.80;99.90;;;;;;5039860;28;20205;-77
2021/05/12 07:50:00;;;;;;;15.73;10.63;;;14.70;99.90;;;;;;5038723;28;20212;-78
2021/05/12 07:52:28;;;;;;;12.73;11.03;;;14.60;99.90;;;;;;5029171;27;20243;-79
2021/05/12 07:54:55;;;;;;;15.97;11.40;;;14.60;99.90;;;;;;5025767;28;20213;-77
2021/05/12 07:57:22;;;;;;;15.30;11.13;;;14.40;99.90;;;;;;5035752;28;20204;-76
2021/05/12 07:59:48;;;;;;;14.67;12.37;;;14.40;99.90;;;;;;5039870;28;20218;-78
2021/05/12 08:02:15;;;;;;;13.83;11.83;;;14.50;99.90;;;;;;5045101;28;20208;-76
2021/05/12 08:04:42;;;;;;;15.47;12.73;;;14.50;99.90;;;;;;5045462;28;20229;-75
2021/05/12 08:07:08;;;;;;;12.80;11.50;;;14.40;99.90;;;;;;5045715;28;20231;-78
2021/05/12 08:09:34;;;;;;;14.17;12.30;;;14.40;99.90;;;;;;5046387;28;20212;-75
2021/05/12 08:12:01;;;;;;;13.50;11.87;;;14.50;99.90;;;;;;5046025;28;20413;-76
2021/05/12 08:14:27;;;;;;;14.97;12.00;;;14.50;99.90;;;;;;5046120;28;20241;-76
2021/05/12 08:16:53;;;;;;;13.90;12.37;;;14.40;99.90;;;;;;5046157;28;20204;-75
2021/05/12 08:19:19;;;;;;;13.07;11.60;;;14.60;99.90;;;;;;5045721;28;20208;-76
2021/05/12 08:21:46;;;;;;;14.30;12.77;;;14.50;99.90;;;;;;5045667;28;20228;-75
2021/05/12 08:24:12;;;;;;;13.33;11.93;;;14.40;99.90;;;;;;5045962;28;20620;-75
2021/05/12 08:26:38;;;;;;;14.07;12.50;;;14.40;99.90;;;;;;5046006;28;20364;-75
2021/05/12 08:29:07;;;;;;;16.00;11.97;;;14.50;99.90;;;;;;5045803;28;20204;-76
2021/05/12 08:31:34;;;;;;;14.87;12.13;;;14.60;99.90;;;;;;5045608;28;20734;-75
2021/05/12 08:34:01;;;;;;;16.00;12.00;;;14.70;99.90;;;;;;5045717;28;20251;-75
2021/05/12 08:36:27;;;;;;;13.80;12.40;;;14.90;99.90;;;;;;5045578;28;20204;-78
2021/05/12 08:38:53;;;;;;;14.83;12.13;;;14.90;99.90;;;;;;5045149;28;20689;-78
2021/05/12 08:41:20;;;;;;;14.60;12.07;;;14.90;99.90;;;;;;5045918;28;20208;-78
2021/05/12 08:43:47;;;;;;;14.63;12.67;;;15.00;99.90;;;;;;5045317;28;20219;-76
2021/05/12 08:46:15;;;;;;;15.13;12.97;;;15.00;99.90;;;;;;5045802;28;20213;-75
2021/05/12 08:48:42;;;;;;;14.73;12.37;;;15.00;99.90;;;;;;5045845;28;20261;-75
2021/05/12 08:51:10;;;;;;;14.57;11.63;;;15.10;99.90;;;;;;5045614;28;20212;-75
2021/05/12 08:53:36;;;;;;;18.60;13.27;;;15.30;99.90;;;;;;5045420;28;20720;-75
2021/05/12 08:56:04;;;;;;;16.37;13.80;;;15.30;99.90;;;;;;5045445;28;20204;-75
2021/05/12 08:58:31;;;;;;;14.50;13.00;;;15.20;99.90;;;;;;5044954;28;20673;-75
2021/05/12 09:00:58;;;;;;;13.67;12.23;;;15.00;99.90;;;;;;5045328;28;20573;-75
2021/05/12 09:03:26;;;;;;;14.00;12.33;;;14.90;99.90;;;;;;5045512;28;20204;-75
2021/05/12 09:05:56;;;;;;;13.47;11.63;;;15.00;99.90;;;;;;5045278;28;20212;-75
2021/05/12 09:08:22;;;;;;;13.47;12.07;;;15.10;99.90;;;;;;5045307;28;20204;-76
2021/05/12 09:10:48;;;;;;;13.53;12.13;;;15.10;99.90;;;;;;5045103;28;20670;-75
2021/05/12 09:13:28;;;;;;;12.90;11.30;;;15.20;99.90;;;;;;5044846;28;20758;-76
2021/05/12 09:15:55;;;;;;;12.17;10.97;;;15.20;99.90;;;;;;5045185;28;20204;-75
2021/05/12 09:18:29;;;;;;;14.80;11.07;;;15.10;99.90;;;;;;5045044;28;20624;-75
2021/05/12 09:20:55;;;;;;;13.37;11.43;;;15.00;99.90;;;;;;5045135;28;20196;-76
2021/05/12 09:23:25;;;;;;;13.47;11.70;;;15.00;99.90;;;;;;5045333;28;20211;-76
2021/05/12 09:25:54;;;;;;;12.93;11.63;;;14.80;99.90;;;;;;5045475;28;20208;-75
2021/05/12 09:28:22;;;;;;;13.13;11.70;;;15.00;99.90;;;;;;5045362;28;20212;-75
2021/05/12 09:30:49;;;;;;;14.60;12.37;;;15.30;99.90;;;;;;5044861;28;20212;-75
2021/05/12 09:33:26;;;;;;;13.70;12.30;;;15.20;99.90;;;;;;5047632;28;20236;-76
2021/05/12 09:35:53;;;;;;;15.33;13.20;;;15.10;99.90;;;;;;5048492;28;20200;-75
2021/05/12 09:38:21;;;;;;;15.37;12.90;;;15.00;99.90;;;;;;5048489;28;20235;-75
2021/05/12 09:41:09;;;;;;;13.67;12.27;;;15.10;99.90;;;;;;5048545;28;20256;-75
2021/05/12 09:43:40;;;;;;;17.33;12.33;;;14.90;99.90;;;;;;5048579;28;20193;-75
2021/05/12 09:46:23;;;;;;;14.67;12.80;;;15.10;99.90;;;;;;5048273;28;20232;-75
2021/05/12 09:49:09;;;;;;;15.23;13.30;;;15.10;99.90;;;;;;5048579;28;20211;-76
2021/05/12 09:51:38;;;;;;;13.60;11.97;;;15.10;99.90;;;;;;5046795;28;20196;-75
2021/05/12 09:54:07;;;;;;;14.43;12.93;;;15.20;99.90;;;;;;5048008;28;20244;-75
2021/05/12 09:56:48;;;;;;;14.20;12.70;;;15.20;99.90;;;;;;5048193;28;20204;-75
2021/05/12 09:59:17;;;;;;;13.53;12.13;;;15.30;99.90;;;;;;5047812;28;20671;-77
2021/05/12 10:01:46;;;;;;;14.33;12.47;;;15.50;99.90;;;;;;5048112;28;20208;-77
2021/05/12 10:04:35;;;;;;;14.47;12.47;;;15.40;99.90;;;;;;5048033;28;20268;-77
2021/05/12 10:07:12;;;;;;;14.30;11.97;;;15.30;99.90;;;;;;5047550;28;20705;-76
2021/05/12 10:09:40;;;;;;;12.40;11.17;;;15.40;99.90;;;;;;5048422;28;20204;-76
2021/05/12 10:12:12;;;;;;;13.27;10.63;;;15.40;99.90;;;;;;5047643;28;20200;-77
2021/05/12 10:14:40;;;;;;;13.87;11.50;;;15.50;99.90;;;;;;5048003;28;20204;-76
2021/05/12 10:17:08;;;;;;;12.23;10.97;;;15.60;99.90;;;;;;5048017;28;20200;-77
2021/05/12 10:19:35;;;;;;;14.93;10.97;;;15.60;99.90;;;;;;5047964;28;20249;-76
2021/05/12 10:22:04;;;;;;;12.37;10.80;;;15.80;99.90;;;;;;5047409;28;20229;-77
2021/05/12 10:24:31;;;;;;;12.93;11.53;;;15.70;99.90;;;;;;5047770;28;20261;-77
2021/05/12 10:27:01;;;;;;;12.83;11.37;;;15.70;99.90;;;;;;5047476;28;20209;-77
2021/05/12 10:29:27;;;;;;;11.37;10.27;;;15.80;99.90;;;;;;5047679;28;20213;-77
2021/05/12 10:31:54;;;;;;;11.63;10.43;;;16.10;99.90;;;;;;5047781;27;20212;-77
2021/05/12 10:34:36;;;;;;;11.60;10.13;;;16.10;99.90;;;;;;5047599;28;20232;-77
2021/05/12 10:37:23;;;;;;;11.97;10.77;;;15.90;99.90;;;;;;5047540;28;20199;-77
2021/05/12 10:39:52;;;;;;;11.40;10.27;;;15.60;99.90;;;;;;5047405;28;20240;-77
2021/05/12 10:43:01;;;;;;;12.57;10.10;;;15.50;99.90;;;;;;5047373;28;20257;-77
2021/05/12 10:45:59;;;;;;;12.10;10.77;;;15.70;99.90;;;;;;5047134;28;20652;-77
2021/05/12 10:48:44;;;;;;;11.00;9.90;;;15.60;99.90;;;;;;5047482;28;20220;-77
2021/05/12 10:51:30;;;;;;;11.40;10.20;;;15.60;99.90;;;;;;5047498;28;20200;-77
2021/05/12 10:53:58;;;;;;;11.73;10.53;;;15.80;99.90;;;;;;5047275;28;20566;-77
2021/05/12 10:56:34;;;;;;;10.80;9.80;;;16.00;99.90;;;;;;5047334;28;20212;-77
2021/05/12 10:59:02;;;;;;;10.13;9.30;;;16.10;99.90;;;;;;5047049;28;20192;-77
2021/05/12 11:01:33;;;;;;;10.93;9.93;;;16.30;99.90;;;;;;5047070;28;20735;-77
2021/05/12 11:04:09;;;;;;;11.40;10.00;;;16.30;99.90;;;;;;5047510;28;20249;-77
2021/05/12 11:06:58;;;;;;;11.17;9.77;;;16.20;99.90;;;;;;5046873;28;20799;-77
2021/05/12 11:09:39;;;;;;;10.50;9.50;;;16.00;99.90;;;;;;5047008;28;20210;-77
2021/05/12 11:12:09;;;;;;;10.20;9.20;;;16.10;99.90;;;;;;5046720;28;20204;-77
2021/05/12 11:14:37;;;;;;;11.73;9.90;;;16.10;99.90;;;;;;5047024;28;20236;-77
2021/05/12 11:17:05;;;;;;;9.90;9.00;;;16.10;99.90;;;;;;5046592;27;20208;-77
2021/05/12 11:19:47;;;;;;;13.00;9.37;;;16.30;99.90;;;;;;5046631;28;20209;-77
2021/05/12 11:22:35;;;;;;;11.07;9.97;;;16.30;99.90;;;;;;5046833;28;20287;-76
2021/05/12 11:25:08;;;;;;;10.00;9.10;;;16.10;99.90;;;;;;5046942;27;20211;-77
2021/05/12 11:33:02;;;;;;;10.47;9.47;;;16.40;99.90;;;;;;5046655;28;20247;-77
2021/05/12 11:35:30;;;;;;;12.43;9.97;;;16.20;99.90;;;;;;5046813;28;20216;-77
2021/05/12 11:37:56;;;;;;;11.07;9.97;;;16.10;99.90;;;;;;5046603;28;20257;-77
2021/05/12 11:40:29;;;;;;;12.47;10.33;;;15.90;99.90;;;;;;5046350;28;20192;-77
2021/05/12 11:42:55;;;;;;;12.77;10.77;;;15.60;99.90;;;;;;5046978;28;20340;-77
2021/05/12 11:45:21;;;;;;;11.50;10.40;;;15.60;99.90;;;;;;5046499;28;20674;-77
2021/05/12 11:47:58;;;;;;;12.93;11.13;;;15.50;99.90;;;;;;5046862;28;20975;-77
2021/05/12 11:50:25;;;;;;;13.07;11.10;;;15.40;99.90;;;;;;5046263;28;20188;-77
2021/05/12 11:52:52;;;;;;;12.60;11.40;;;15.50;99.90;;;;;;5046171;28;20605;-77
2021/05/12 11:55:21;;;;;;;12.67;11.17;;;15.60;99.90;;;;;;5045715;28;20207;-76
2021/05/12 11:57:49;;;;;;;11.53;10.40;;;15.80;99.90;;;;;;5046410;28;20211;-76
2021/05/12 12:00:18;;;;;;;13.37;12.07;;;16.00;99.90;;;;;;5046421;28;20207;-77
2021/05/12 12:02:56;;;;;;;12.20;11.00;;;16.10;99.90;;;;;;5046323;28;20208;-77
2021/05/12 12:05:22;;;;;;;13.80;12.43;;;16.10;99.90;;;;;;5045587;28;20572;-77
2021/05/12 12:07:48;;;;;;;16.57;12.60;;;16.00;99.90;;;;;;5045795;28;20288;-77
2021/05/12 12:10:15;;;;;;;12.63;11.40;;;15.70;99.90;;;;;;5045855;28;20211;-77
2021/05/12 12:12:56;;;;;;;12.77;11.50;;;15.80;99.90;;;;;;5045759;28;20216;-77
2021/05/12 12:15:23;;;;;;;13.40;12.10;;;16.00;99.90;;;;;;5046151;28;20193;-77
2021/05/12 12:17:49;;;;;;;13.47;11.93;;;16.10;99.90;;;;;;5046118;28;20207;-77
2021/05/12 12:20:16;;;;;;;13.80;12.27;;;16.10;99.90;;;;;;5045810;28;20208;-77
2021/05/12 12:22:48;;;;;;;12.80;11.50;;;16.20;99.90;;;;;;5045979;28;20224;-77
2021/05/12 12:25:15;;;;;;;12.80;11.30;;;16.30;99.90;;;;;;5045926;28;20245;-77
2021/05/12 12:27:42;;;;;;;12.90;11.70;;;16.40;99.90;;;;;;5045834;28;20215;-77
2021/05/12 12:30:14;;;;;;;12.13;10.83;;;16.60;99.90;;;;;;5045980;28;20386;-77
2021/05/12 12:32:41;;;;;;;15.83;13.27;;;16.70;99.90;;;;;;5045758;28;20208;-77
2021/05/12 12:35:08;;;;;;;14.80;12.70;;;16.70;99.90;;;;;;5045658;28;20200;-77
2021/05/12 12:37:37;;;;;;;13.37;11.97;;;16.70;99.90;;;;;;5045822;28;20208;-76
2021/05/12 12:40:06;;;;;;;13.27;11.87;;;16.50;99.90;;;;;;5045223;28;20771;-77
2021/05/12 12:42:34;;;;;;;14.27;12.87;;;16.60;99.90;;;;;;5045874;28;20219;-77
2021/05/12 12:45:03;;;;;;;13.90;12.53;;;16.60;99.90;;;;;;5045920;28;20412;-77
2021/05/12 12:47:30;;;;;;;14.43;12.93;;;16.70;99.90;;;;;;5045696;28;20576;-77
2021/05/12 12:49:58;;;;;;;14.13;12.77;;;16.70;99.90;;;;;;5045303;28;20711;-77